sensor_id;sensor_type;location;lat;lon;timestamp;P1;durP1;ratioP1;P2;durP2;ratioP2
8048;SDS011;20935;42.660;23.342;2023-05-10T00:00:03;2.23;;;2.03;;
8048;SDS011;20935;42.660;23.342;2023-05-10T00:02:49;2.40;;;2.20;;
8048;SDS011;20935;42.660;23.342;2023-05-10T00:05:35;2.13;;;2.03;;
8048;SDS011;20935;42.660;23.342;2023-05-10T00:08:20;2.17;;;2.07;;
8048;SDS011;20935;42.660;23.342;2023-05-10T00:11:06;2.10;;;2.00;;
8048;SDS011;20935;42.660;23.342;2023-05-10T00:13:52;2.27;;;2.17;;
8048;SDS011;20935;42.660;23.342;2023-05-10T00:16:38;2.50;;;2.30;;
8048;SDS011;20935;42.660;23.342;2023-05-10T00:19:24;2.20;;;2.10;;
8048;SDS011;20935;42.660;23.342;2023-05-10T00:22:10;2.33;;;1.93;;
8048;SDS011;20935;42.660;23.342;2023-05-10T00:24:55;2.40;;;2.20;;
8048;SDS011;20935;42.660;23.342;2023-05-10T00:27:41;2.40;;;2.20;;
8048;SDS011;20935;42.660;23.342;2023-05-10T00:30:26;2.20;;;2.00;;
8048;SDS011;20935;42.660;23.342;2023-05-10T00:33:13;2.50;;;2.30;;
8048;SDS011;20935;42.660;23.342;2023-05-10T00:35:58;2.30;;;2.10;;
8048;SDS011;20935;42.660;23.342;2023-05-10T00:38:44;2.27;;;2.07;;
8048;SDS011;20935;42.660;23.342;2023-05-10T00:41:29;2.60;;;2.40;;
8048;SDS011;20935;42.660;23.342;2023-05-10T00:44:16;2.27;;;2.07;;
8048;SDS011;20935;42.660;23.342;2023-05-10T00:47:02;2.20;;;2.10;;
8048;SDS011;20935;42.660;23.342;2023-05-10T00:49:48;2.00;;;1.90;;
8048;SDS011;20935;42.660;23.342;2023-05-10T00:52:34;2.10;;;2.00;;
8048;SDS011;20935;42.660;23.342;2023-05-10T00:55:19;2.37;;;2.20;;
8048;SDS011;20935;42.660;23.342;2023-05-10T00:58:05;2.70;;;2.27;;
8048;SDS011;20935;42.660;23.342;2023-05-10T01:00:50;2.10;;;2.00;;
8048;SDS011;20935;42.660;23.342;2023-05-10T01:03:36;2.30;;;2.10;;
8048;SDS011;20935;42.660;23.342;2023-05-10T01:06:23;2.43;;;2.23;;
8048;SDS011;20935;42.660;23.342;2023-05-10T01:09:09;2.00;;;1.90;;
8048;SDS011;20935;42.660;23.342;2023-05-10T01:11:55;2.20;;;1.93;;
8048;SDS011;20935;42.660;23.342;2023-05-10T01:14:41;2.30;;;2.03;;
8048;SDS011;20935;42.660;23.342;2023-05-10T01:17:27;2.57;;;2.37;;
8048;SDS011;20935;42.660;23.342;2023-05-10T01:20:12;2.60;;;2.40;;
8048;SDS011;20935;42.660;23.342;2023-05-10T01:23:14;2.13;;;2.03;;
8048;SDS011;20935;42.660;23.342;2023-05-10T01:29:52;2.50;;;2.30;;
8048;SDS011;20935;42.660;23.342;2023-05-10T01:33:01;2.33;;;2.13;;
8048;SDS011;20935;42.660;23.342;2023-05-10T01:35:58;2.50;;;2.30;;
8048;SDS011;20935;42.660;23.342;2023-05-10T01:38:52;2.83;;;2.63;;
8048;SDS011;20935;42.660;23.342;2023-05-10T01:41:46;2.00;;;1.90;;
8048;SDS011;20935;42.660;23.342;2023-05-10T01:44:37;2.63;;;2.40;;
8048;SDS011;20935;42.660;23.342;2023-05-10T01:47:28;2.50;;;2.33;;
8048;SDS011;20935;42.660;23.342;2023-05-10T01:50:24;2.40;;;2.30;;
8048;SDS011;20935;42.660;23.342;2023-05-10T01:53:14;2.40;;;2.20;;
8048;SDS011;20935;42.660;23.342;2023-05-10T01:56:03;2.00;;;1.90;;
8048;SDS011;20935;42.660;23.342;2023-05-10T01:58:51;2.40;;;2.20;;
8048;SDS011;20935;42.660;23.342;2023-05-10T02:01:37;2.60;;;2.33;;
8048;SDS011;20935;42.660;23.342;2023-05-10T02:04:23;2.57;;;2.37;;
8048;SDS011;20935;42.660;23.342;2023-05-10T02:07:11;2.50;;;2.30;;
8048;SDS011;20935;42.660;23.342;2023-05-10T02:09:57;2.53;;;2.33;;
8048;SDS011;20935;42.660;23.342;2023-05-10T02:12:44;2.47;;;2.27;;
8048;SDS011;20935;42.660;23.342;2023-05-10T02:15:32;2.47;;;2.30;;
8048;SDS011;20935;42.660;23.342;2023-05-10T02:18:18;2.40;;;2.30;;
8048;SDS011;20935;42.660;23.342;2023-05-10T02:21:04;2.43;;;2.23;;
8048;SDS011;20935;42.660;23.342;2023-05-10T02:23:52;2.70;;;2.50;;
8048;SDS011;20935;42.660;23.342;2023-05-10T02:26:39;2.70;;;2.50;;
8048;SDS011;20935;42.660;23.342;2023-05-10T02:29:27;2.40;;;2.20;;
8048;SDS011;20935;42.660;23.342;2023-05-10T02:32:13;2.53;;;2.33;;
8048;SDS011;20935;42.660;23.342;2023-05-10T02:35:00;2.30;;;2.20;;
8048;SDS011;20935;42.660;23.342;2023-05-10T02:37:47;2.63;;;2.43;;
8048;SDS011;20935;42.660;23.342;2023-05-10T02:40:34;2.60;;;2.40;;
8048;SDS011;20935;42.660;23.342;2023-05-10T02:43:21;2.63;;;2.43;;
8048;SDS011;20935;42.660;23.342;2023-05-10T02:46:09;2.53;;;2.33;;
8048;SDS011;20935;42.660;23.342;2023-05-10T02:48:54;2.60;;;2.40;;
8048;SDS011;20935;42.660;23.342;2023-05-10T02:51:40;2.70;;;2.50;;
8048;SDS011;20935;42.660;23.342;2023-05-10T02:54:29;2.10;;;2.00;;
8048;SDS011;20935;42.660;23.342;2023-05-10T02:57:21;2.50;;;2.30;;
8048;SDS011;20935;42.660;23.342;2023-05-10T03:00:10;2.47;;;2.27;;
8048;SDS011;20935;42.660;23.342;2023-05-10T03:02:56;2.83;;;2.63;;
8048;SDS011;20935;42.660;23.342;2023-05-10T03:05:42;2.60;;;2.40;;
8048;SDS011;20935;42.660;23.342;2023-05-10T03:08:27;3.17;;;2.77;;
8048;SDS011;20935;42.660;23.342;2023-05-10T03:11:16;2.30;;;2.20;;
8048;SDS011;20935;42.660;23.342;2023-05-10T03:14:21;2.63;;;2.43;;
8048;SDS011;20935;42.660;23.342;2023-05-10T03:17:21;2.53;;;2.33;;
8048;SDS011;20935;42.660;23.342;2023-05-10T03:20:10;3.00;;;2.80;;
8048;SDS011;20935;42.660;23.342;2023-05-10T03:23:00;2.80;;;2.60;;
8048;SDS011;20935;42.660;23.342;2023-05-10T03:25:49;2.57;;;2.37;;
8048;SDS011;20935;42.660;23.342;2023-05-10T03:28:35;3.20;;;2.90;;
8048;SDS011;20935;42.660;23.342;2023-05-10T03:31:23;2.83;;;2.63;;
8048;SDS011;20935;42.660;23.342;2023-05-10T03:34:08;2.60;;;2.40;;
8048;SDS011;20935;42.660;23.342;2023-05-10T03:36:54;2.80;;;2.60;;
8048;SDS011;20935;42.660;23.342;2023-05-10T03:39:39;2.60;;;2.40;;
8048;SDS011;20935;42.660;23.342;2023-05-10T03:42:25;2.70;;;2.50;;
8048;SDS011;20935;42.660;23.342;2023-05-10T03:45:10;3.03;;;2.83;;
8048;SDS011;20935;42.660;23.342;2023-05-10T03:47:58;2.30;;;2.20;;
8048;SDS011;20935;42.660;23.342;2023-05-10T03:50:43;3.20;;;2.50;;
8048;SDS011;20935;42.660;23.342;2023-05-10T03:53:29;2.60;;;2.40;;
8048;SDS011;20935;42.660;23.342;2023-05-10T03:56:14;3.23;;;3.00;;
8048;SDS011;20935;42.660;23.342;2023-05-10T03:59:00;2.70;;;2.60;;
8048;SDS011;20935;42.660;23.342;2023-05-10T04:01:45;2.70;;;2.50;;
8048;SDS011;20935;42.660;23.342;2023-05-10T04:04:32;2.80;;;2.60;;
8048;SDS011;20935;42.660;23.342;2023-05-10T04:07:17;2.40;;;2.23;;
8048;SDS011;20935;42.660;23.342;2023-05-10T04:10:03;2.70;;;2.50;;
8048;SDS011;20935;42.660;23.342;2023-05-10T04:12:49;2.90;;;2.70;;
8048;SDS011;20935;42.660;23.342;2023-05-10T04:15:34;2.60;;;2.40;;
8048;SDS011;20935;42.660;23.342;2023-05-10T04:18:20;2.70;;;2.50;;
8048;SDS011;20935;42.660;23.342;2023-05-10T04:21:12;2.83;;;2.63;;
8048;SDS011;20935;42.660;23.342;2023-05-10T04:23:57;2.57;;;2.37;;
8048;SDS011;20935;42.660;23.342;2023-05-10T04:26:42;2.97;;;2.77;;
8048;SDS011;20935;42.660;23.342;2023-05-10T04:29:28;3.10;;;2.90;;
8048;SDS011;20935;42.660;23.342;2023-05-10T04:32:13;2.67;;;2.47;;
8048;SDS011;20935;42.660;23.342;2023-05-10T04:34:59;2.70;;;2.50;;
8048;SDS011;20935;42.660;23.342;2023-05-10T04:37:48;2.70;;;2.50;;
8048;SDS011;20935;42.660;23.342;2023-05-10T04:40:34;3.00;;;2.70;;
8048;SDS011;20935;42.660;23.342;2023-05-10T04:43:19;3.23;;;2.93;;
8048;SDS011;20935;42.660;23.342;2023-05-10T04:46:05;3.07;;;2.83;;
8048;SDS011;20935;42.660;23.342;2023-05-10T04:48:50;2.90;;;2.60;;
8048;SDS011;20935;42.660;23.342;2023-05-10T04:51:36;3.10;;;2.90;;
8048;SDS011;20935;42.660;23.342;2023-05-10T04:54:23;3.00;;;2.80;;
8048;SDS011;20935;42.660;23.342;2023-05-10T04:57:08;3.13;;;2.90;;
8048;SDS011;20935;42.660;23.342;2023-05-10T04:59:54;2.73;;;2.53;;
8048;SDS011;20935;42.660;23.342;2023-05-10T05:02:41;2.70;;;2.50;;
8048;SDS011;20935;42.660;23.342;2023-05-10T05:05:27;2.60;;;2.40;;
8048;SDS011;20935;42.660;23.342;2023-05-10T05:08:12;2.77;;;2.53;;
8048;SDS011;20935;42.660;23.342;2023-05-10T05:10:59;2.73;;;2.53;;
8048;SDS011;20935;42.660;23.342;2023-05-10T05:13:44;3.00;;;2.80;;
8048;SDS011;20935;42.660;23.342;2023-05-10T05:16:30;3.20;;;2.90;;
8048;SDS011;20935;42.660;23.342;2023-05-10T05:19:16;2.77;;;2.57;;
8048;SDS011;20935;42.660;23.342;2023-05-10T05:22:01;2.67;;;2.47;;
8048;SDS011;20935;42.660;23.342;2023-05-10T05:24:47;2.80;;;2.60;;
8048;SDS011;20935;42.660;23.342;2023-05-10T05:27:33;3.40;;;3.10;;
8048;SDS011;20935;42.660;23.342;2023-05-10T05:30:19;4.63;;;3.20;;
8048;SDS011;20935;42.660;23.342;2023-05-10T05:33:05;4.03;;;2.90;;
8048;SDS011;20935;42.660;23.342;2023-05-10T05:35:50;6.03;;;2.97;;
8048;SDS011;20935;42.660;23.342;2023-05-10T05:38:36;3.23;;;2.93;;
8048;SDS011;20935;42.660;23.342;2023-05-10T05:41:21;2.60;;;2.40;;
8048;SDS011;20935;42.660;23.342;2023-05-10T05:44:09;3.63;;;2.93;;
8048;SDS011;20935;42.660;23.342;2023-05-10T05:46:54;4.93;;;3.00;;
8048;SDS011;20935;42.660;23.342;2023-05-10T05:49:40;2.93;;;2.67;;
8048;SDS011;20935;42.660;23.342;2023-05-10T05:52:25;4.87;;;3.20;;
8048;SDS011;20935;42.660;23.342;2023-05-10T05:55:11;3.10;;;2.90;;
8048;SDS011;20935;42.660;23.342;2023-05-10T05:57:56;3.57;;;2.93;;
8048;SDS011;20935;42.660;23.342;2023-05-10T06:00:43;3.37;;;3.00;;
8048;SDS011;20935;42.660;23.342;2023-05-10T06:03:28;3.20;;;2.90;;
8048;SDS011;20935;42.660;23.342;2023-05-10T06:06:14;3.53;;;3.10;;
8048;SDS011;20935;42.660;23.342;2023-05-10T06:08:59;5.03;;;2.97;;
8048;SDS011;20935;42.660;23.342;2023-05-10T06:11:45;3.20;;;2.90;;
8048;SDS011;20935;42.660;23.342;2023-05-10T06:14:33;3.70;;;3.00;;
8048;SDS011;20935;42.660;23.342;2023-05-10T06:17:20;4.50;;;3.00;;
8048;SDS011;20935;42.660;23.342;2023-05-10T06:20:06;3.77;;;3.00;;
8048;SDS011;20935;42.660;23.342;2023-05-10T06:22:53;4.23;;;3.10;;
8048;SDS011;20935;42.660;23.342;2023-05-10T06:25:38;3.30;;;3.10;;
8048;SDS011;20935;42.660;23.342;2023-05-10T06:28:23;3.07;;;2.87;;
8048;SDS011;20935;42.660;23.342;2023-05-10T06:31:09;3.30;;;3.00;;
8048;SDS011;20935;42.660;23.342;2023-05-10T06:33:56;5.13;;;3.47;;
8048;SDS011;20935;42.660;23.342;2023-05-10T06:36:42;3.60;;;3.20;;
8048;SDS011;20935;42.660;23.342;2023-05-10T06:39:28;4.93;;;3.70;;
8048;SDS011;20935;42.660;23.342;2023-05-10T06:42:13;4.87;;;3.87;;
8048;SDS011;20935;42.660;23.342;2023-05-10T06:44:58;3.90;;;3.60;;
8048;SDS011;20935;42.660;23.342;2023-05-10T06:47:44;4.20;;;3.80;;
8048;SDS011;20935;42.660;23.342;2023-05-10T06:50:31;3.73;;;3.40;;
8048;SDS011;20935;42.660;23.342;2023-05-10T06:53:16;5.23;;;4.03;;
8048;SDS011;20935;42.660;23.342;2023-05-10T06:56:02;5.27;;;4.10;;
8048;SDS011;20935;42.660;23.342;2023-05-10T06:58:48;3.73;;;3.37;;
8048;SDS011;20935;42.660;23.342;2023-05-10T07:01:33;5.77;;;4.20;;
8048;SDS011;20935;42.660;23.342;2023-05-10T07:04:18;7.20;;;4.50;;
8048;SDS011;20935;42.660;23.342;2023-05-10T07:07:05;4.40;;;4.00;;
8048;SDS011;20935;42.660;23.342;2023-05-10T07:09:50;5.77;;;3.90;;
8048;SDS011;20935;42.660;23.342;2023-05-10T07:12:36;4.60;;;4.20;;
8048;SDS011;20935;42.660;23.342;2023-05-10T07:15:21;4.23;;;3.87;;
8048;SDS011;20935;42.660;23.342;2023-05-10T07:18:07;4.33;;;3.93;;
8048;SDS011;20935;42.660;23.342;2023-05-10T07:20:52;4.43;;;4.03;;
8048;SDS011;20935;42.660;23.342;2023-05-10T07:23:39;6.90;;;4.10;;
8048;SDS011;20935;42.660;23.342;2023-05-10T07:26:24;4.10;;;3.80;;
8048;SDS011;20935;42.660;23.342;2023-05-10T07:29:09;5.50;;;4.00;;
8048;SDS011;20935;42.660;23.342;2023-05-10T07:31:55;5.10;;;3.40;;
8048;SDS011;20935;42.660;23.342;2023-05-10T07:34:40;4.73;;;3.97;;
8048;SDS011;20935;42.660;23.342;2023-05-10T07:37:26;4.70;;;4.30;;
8048;SDS011;20935;42.660;23.342;2023-05-10T07:40:13;4.77;;;3.80;;
8048;SDS011;20935;42.660;23.342;2023-05-10T07:42:59;3.87;;;3.57;;
8048;SDS011;20935;42.660;23.342;2023-05-10T07:45:45;5.50;;;4.27;;
8048;SDS011;20935;42.660;23.342;2023-05-10T07:48:30;4.23;;;3.83;;
8048;SDS011;20935;42.660;23.342;2023-05-10T07:51:16;4.10;;;3.70;;
8048;SDS011;20935;42.660;23.342;2023-05-10T07:54:02;4.20;;;3.70;;
8048;SDS011;20935;42.660;23.342;2023-05-10T07:56:48;3.87;;;3.57;;
8048;SDS011;20935;42.660;23.342;2023-05-10T07:59:34;4.00;;;3.60;;
8048;SDS011;20935;42.660;23.342;2023-05-10T08:02:19;4.13;;;3.73;;
8048;SDS011;20935;42.660;23.342;2023-05-10T08:05:05;4.20;;;3.80;;
8048;SDS011;20935;42.660;23.342;2023-05-10T08:07:51;4.60;;;4.00;;
8048;SDS011;20935;42.660;23.342;2023-05-10T08:10:36;4.33;;;3.93;;
8048;SDS011;20935;42.660;23.342;2023-05-10T08:13:23;4.03;;;3.63;;
8048;SDS011;20935;42.660;23.342;2023-05-10T08:16:08;4.73;;;3.87;;
8048;SDS011;20935;42.660;23.342;2023-05-10T08:18:54;4.67;;;3.77;;
8048;SDS011;20935;42.660;23.342;2023-05-10T08:21:40;4.40;;;3.97;;
8048;SDS011;20935;42.660;23.342;2023-05-10T08:24:26;4.10;;;3.80;;
8048;SDS011;20935;42.660;23.342;2023-05-10T08:27:11;4.10;;;3.70;;
8048;SDS011;20935;42.660;23.342;2023-05-10T08:29:58;4.53;;;4.13;;
8048;SDS011;20935;42.660;23.342;2023-05-10T08:32:44;4.47;;;4.03;;
8048;SDS011;20935;42.660;23.342;2023-05-10T08:35:29;4.40;;;3.90;;
8048;SDS011;20935;42.660;23.342;2023-05-10T08:38:15;4.07;;;3.67;;
8048;SDS011;20935;42.660;23.342;2023-05-10T08:41:00;4.40;;;4.00;;
8048;SDS011;20935;42.660;23.342;2023-05-10T08:43:47;4.73;;;4.23;;
8048;SDS011;20935;42.660;23.342;2023-05-10T08:46:34;4.63;;;4.23;;
8048;SDS011;20935;42.660;23.342;2023-05-10T08:49:23;3.97;;;3.67;;
8048;SDS011;20935;42.660;23.342;2023-05-10T08:52:12;4.17;;;3.77;;
8048;SDS011;20935;42.660;23.342;2023-05-10T08:55:00;4.67;;;4.27;;
8048;SDS011;20935;42.660;23.342;2023-05-10T08:57:45;4.57;;;4.17;;
8048;SDS011;20935;42.660;23.342;2023-05-10T09:00:31;4.77;;;3.70;;
8048;SDS011;20935;42.660;23.342;2023-05-10T09:03:18;4.07;;;3.63;;
8048;SDS011;20935;42.660;23.342;2023-05-10T09:06:04;5.07;;;4.13;;
8048;SDS011;20935;42.660;23.342;2023-05-10T09:08:50;4.10;;;3.70;;
8048;SDS011;20935;42.660;23.342;2023-05-10T09:11:37;4.27;;;3.83;;
8048;SDS011;20935;42.660;23.342;2023-05-10T09:14:23;4.30;;;4.00;;
8048;SDS011;20935;42.660;23.342;2023-05-10T09:17:09;4.40;;;4.00;;
8048;SDS011;20935;42.660;23.342;2023-05-10T09:20:00;4.10;;;3.70;;
8048;SDS011;20935;42.660;23.342;2023-05-10T09:22:46;4.43;;;3.93;;
8048;SDS011;20935;42.660;23.342;2023-05-10T09:25:31;4.33;;;3.93;;
8048;SDS011;20935;42.660;23.342;2023-05-10T09:28:18;4.80;;;4.10;;
8048;SDS011;20935;42.660;23.342;2023-05-10T09:31:03;4.03;;;3.60;;
8048;SDS011;20935;42.660;23.342;2023-05-10T09:33:49;4.63;;;4.03;;
8048;SDS011;20935;42.660;23.342;2023-05-10T09:36:36;4.60;;;4.20;;
8048;SDS011;20935;42.660;23.342;2023-05-10T09:39:36;4.27;;;3.90;;
8048;SDS011;20935;42.660;23.342;2023-05-10T09:42:22;4.60;;;4.13;;
8048;SDS011;20935;42.660;23.342;2023-05-10T09:45:08;5.50;;;4.10;;
8048;SDS011;20935;42.660;23.342;2023-05-10T09:47:53;4.40;;;4.00;;
8048;SDS011;20935;42.660;23.342;2023-05-10T09:50:39;4.40;;;4.00;;
8048;SDS011;20935;42.660;23.342;2023-05-10T09:53:26;4.50;;;4.10;;
8048;SDS011;20935;42.660;23.342;2023-05-10T09:56:12;4.27;;;3.87;;
8048;SDS011;20935;42.660;23.342;2023-05-10T09:59:01;4.50;;;4.10;;
8048;SDS011;20935;42.660;23.342;2023-05-10T10:01:49;5.30;;;4.43;;
8048;SDS011;20935;42.660;23.342;2023-05-10T10:04:38;4.77;;;4.37;;
8048;SDS011;20935;42.660;23.342;2023-05-10T10:07:24;5.17;;;4.50;;
8048;SDS011;20935;42.660;23.342;2023-05-10T10:10:11;6.20;;;4.80;;
8048;SDS011;20935;42.660;23.342;2023-05-10T10:12:58;5.23;;;4.23;;
8048;SDS011;20935;42.660;23.342;2023-05-10T10:15:43;5.27;;;4.77;;
8048;SDS011;20935;42.660;23.342;2023-05-10T10:18:29;5.30;;;4.63;;
8048;SDS011;20935;42.660;23.342;2023-05-10T10:21:15;4.33;;;3.93;;
8048;SDS011;20935;42.660;23.342;2023-05-10T10:24:02;4.33;;;4.00;;
8048;SDS011;20935;42.660;23.342;2023-05-10T10:26:50;5.00;;;4.47;;
8048;SDS011;20935;42.660;23.342;2023-05-10T10:29:39;4.83;;;4.20;;
8048;SDS011;20935;42.660;23.342;2023-05-10T10:32:35;4.73;;;4.10;;
8048;SDS011;20935;42.660;23.342;2023-05-10T10:35:33;4.77;;;4.37;;
8048;SDS011;20935;42.660;23.342;2023-05-10T10:38:20;5.27;;;4.07;;
8048;SDS011;20935;42.660;23.342;2023-05-10T10:41:08;4.40;;;4.00;;
8048;SDS011;20935;42.660;23.342;2023-05-10T10:47:23;5.43;;;4.40;;
8048;SDS011;20935;42.660;23.342;2023-05-10T10:50:11;5.03;;;4.53;;
8048;SDS011;20935;42.660;23.342;2023-05-10T10:52:57;4.83;;;4.43;;
8048;SDS011;20935;42.660;23.342;2023-05-10T10:56:04;4.83;;;4.33;;
8048;SDS011;20935;42.660;23.342;2023-05-10T10:58:53;9.20;;;4.63;;
8048;SDS011;20935;42.660;23.342;2023-05-10T11:01:46;7.47;;;4.80;;
8048;SDS011;20935;42.660;23.342;2023-05-10T11:04:42;10.67;;;5.03;;
8048;SDS011;20935;42.660;23.342;2023-05-10T11:07:30;11.17;;;5.10;;
8048;SDS011;20935;42.660;23.342;2023-05-10T11:10:18;9.90;;;5.40;;
8048;SDS011;20935;42.660;23.342;2023-05-10T11:13:05;9.97;;;5.70;;
8048;SDS011;20935;42.660;23.342;2023-05-10T11:15:50;15.17;;;5.53;;
8048;SDS011;20935;42.660;23.342;2023-05-10T11:18:37;8.03;;;5.10;;
8048;SDS011;20935;42.660;23.342;2023-05-10T11:21:23;6.33;;;4.60;;
8048;SDS011;20935;42.660;23.342;2023-05-10T11:24:12;5.50;;;4.53;;
8048;SDS011;20935;42.660;23.342;2023-05-10T11:26:58;9.03;;;5.50;;
8048;SDS011;20935;42.660;23.342;2023-05-10T11:29:44;10.87;;;4.70;;
8048;SDS011;20935;42.660;23.342;2023-05-10T11:32:29;6.30;;;5.17;;
8048;SDS011;20935;42.660;23.342;2023-05-10T11:35:16;9.13;;;4.93;;
8048;SDS011;20935;42.660;23.342;2023-05-10T11:38:01;7.07;;;5.73;;
8048;SDS011;20935;42.660;23.342;2023-05-10T11:40:47;8.17;;;5.10;;
8048;SDS011;20935;42.660;23.342;2023-05-10T11:43:38;6.80;;;4.50;;
8048;SDS011;20935;42.660;23.342;2023-05-10T11:46:25;5.20;;;4.67;;
8048;SDS011;20935;42.660;23.342;2023-05-10T11:49:12;5.57;;;4.60;;
8048;SDS011;20935;42.660;23.342;2023-05-10T11:52:08;5.33;;;4.83;;
8048;SDS011;20935;42.660;23.342;2023-05-10T11:54:54;5.27;;;4.67;;
8048;SDS011;20935;42.660;23.342;2023-05-10T11:57:40;5.50;;;5.00;;
8048;SDS011;20935;42.660;23.342;2023-05-10T12:00:28;5.90;;;4.50;;
8048;SDS011;20935;42.660;23.342;2023-05-10T12:03:14;5.40;;;4.67;;
8048;SDS011;20935;42.660;23.342;2023-05-10T12:05:59;6.13;;;4.63;;
8048;SDS011;20935;42.660;23.342;2023-05-10T12:08:48;5.40;;;4.90;;
8048;SDS011;20935;42.660;23.342;2023-05-10T12:11:36;5.93;;;4.70;;
8048;SDS011;20935;42.660;23.342;2023-05-10T12:14:24;6.53;;;4.80;;
8048;SDS011;20935;42.660;23.342;2023-05-10T12:17:11;6.30;;;4.80;;
8048;SDS011;20935;42.660;23.342;2023-05-10T12:19:58;4.80;;;4.40;;
8048;SDS011;20935;42.660;23.342;2023-05-10T12:22:45;5.60;;;5.10;;
8048;SDS011;20935;42.660;23.342;2023-05-10T12:25:33;6.50;;;4.90;;
8048;SDS011;20935;42.660;23.342;2023-05-10T12:28:18;4.67;;;4.27;;
8048;SDS011;20935;42.660;23.342;2023-05-10T12:31:05;4.90;;;4.27;;
8048;SDS011;20935;42.660;23.342;2023-05-10T12:33:51;5.27;;;4.77;;
8048;SDS011;20935;42.660;23.342;2023-05-10T12:36:38;5.30;;;3.97;;
8048;SDS011;20935;42.660;23.342;2023-05-10T12:39:23;5.63;;;5.07;;
8048;SDS011;20935;42.660;23.342;2023-05-10T12:42:10;5.13;;;4.30;;
8048;SDS011;20935;42.660;23.342;2023-05-10T12:44:56;4.97;;;4.47;;
8048;SDS011;20935;42.660;23.342;2023-05-10T12:47:41;5.07;;;4.67;;
8048;SDS011;20935;42.660;23.342;2023-05-10T12:50:27;5.20;;;4.70;;
8048;SDS011;20935;42.660;23.342;2023-05-10T12:53:12;5.00;;;4.60;;
8048;SDS011;20935;42.660;23.342;2023-05-10T12:55:58;5.20;;;4.73;;
8048;SDS011;20935;42.660;23.342;2023-05-10T12:58:45;5.13;;;4.67;;
8048;SDS011;20935;42.660;23.342;2023-05-10T13:01:31;5.13;;;4.57;;
8048;SDS011;20935;42.660;23.342;2023-05-10T13:04:17;4.90;;;4.50;;
8048;SDS011;20935;42.660;23.342;2023-05-10T13:07:02;4.93;;;4.37;;
8048;SDS011;20935;42.660;23.342;2023-05-10T13:09:48;5.00;;;4.47;;
8048;SDS011;20935;42.660;23.342;2023-05-10T13:12:33;5.27;;;4.77;;
8048;SDS011;20935;42.660;23.342;2023-05-10T13:15:20;5.07;;;4.53;;
8048;SDS011;20935;42.660;23.342;2023-05-10T13:18:05;4.60;;;4.20;;
8048;SDS011;20935;42.660;23.342;2023-05-10T13:20:51;4.40;;;4.00;;
8048;SDS011;20935;42.660;23.342;2023-05-10T13:23:38;5.23;;;4.63;;
8048;SDS011;20935;42.660;23.342;2023-05-10T13:26:23;4.70;;;4.30;;
8048;SDS011;20935;42.660;23.342;2023-05-10T13:29:09;4.97;;;4.13;;
8048;SDS011;20935;42.660;23.342;2023-05-10T13:31:55;4.53;;;4.13;;
8048;SDS011;20935;42.660;23.342;2023-05-10T13:34:41;4.43;;;4.03;;
8048;SDS011;20935;42.660;23.342;2023-05-10T13:37:26;4.63;;;4.23;;
8048;SDS011;20935;42.660;23.342;2023-05-10T13:40:12;5.47;;;4.47;;
8048;SDS011;20935;42.660;23.342;2023-05-10T13:42:59;4.80;;;4.40;;
8048;SDS011;20935;42.660;23.342;2023-05-10T13:45:44;5.00;;;4.50;;
8048;SDS011;20935;42.660;23.342;2023-05-10T13:48:31;4.77;;;4.37;;
8048;SDS011;20935;42.660;23.342;2023-05-10T13:51:16;4.80;;;4.40;;
8048;SDS011;20935;42.660;23.342;2023-05-10T13:54:02;5.30;;;4.30;;
8048;SDS011;20935;42.660;23.342;2023-05-10T13:56:47;4.73;;;4.33;;
8048;SDS011;20935;42.660;23.342;2023-05-10T13:59:32;4.63;;;4.00;;
8048;SDS011;20935;42.660;23.342;2023-05-10T14:02:18;6.67;;;5.07;;
8048;SDS011;20935;42.660;23.342;2023-05-10T14:05:05;5.20;;;4.70;;
8048;SDS011;20935;42.660;23.342;2023-05-10T14:07:51;4.87;;;4.47;;
8048;SDS011;20935;42.660;23.342;2023-05-10T14:10:37;4.53;;;4.13;;
8048;SDS011;20935;42.660;23.342;2023-05-10T14:13:23;4.97;;;4.33;;
8048;SDS011;20935;42.660;23.342;2023-05-10T14:16:09;4.60;;;4.20;;
8048;SDS011;20935;42.660;23.342;2023-05-10T14:18:55;4.30;;;3.90;;
8048;SDS011;20935;42.660;23.342;2023-05-10T14:21:42;5.20;;;4.23;;
8048;SDS011;20935;42.660;23.342;2023-05-10T14:24:28;5.47;;;3.93;;
8048;SDS011;20935;42.660;23.342;2023-05-10T14:27:14;4.87;;;4.47;;
8048;SDS011;20935;42.660;23.342;2023-05-10T14:29:59;4.57;;;4.17;;
8048;SDS011;20935;42.660;23.342;2023-05-10T14:32:45;4.50;;;4.10;;
8048;SDS011;20935;42.660;23.342;2023-05-10T14:35:30;4.43;;;3.97;;
8048;SDS011;20935;42.660;23.342;2023-05-10T14:38:17;5.40;;;4.60;;
8048;SDS011;20935;42.660;23.342;2023-05-10T14:41:03;4.70;;;4.30;;
8048;SDS011;20935;42.660;23.342;2023-05-10T14:43:49;4.90;;;4.50;;
8048;SDS011;20935;42.660;23.342;2023-05-10T14:46:34;4.63;;;4.23;;
8048;SDS011;20935;42.660;23.342;2023-05-10T14:49:20;4.50;;;4.10;;
8048;SDS011;20935;42.660;23.342;2023-05-10T14:55:48;4.30;;;3.80;;
8048;SDS011;20935;42.660;23.342;2023-05-10T14:58:33;4.43;;;3.90;;
8048;SDS011;20935;42.660;23.342;2023-05-10T15:01:19;4.17;;;3.87;;
8048;SDS011;20935;42.660;23.342;2023-05-10T15:04:05;4.50;;;4.10;;
8048;SDS011;20935;42.660;23.342;2023-05-10T15:06:50;4.37;;;3.97;;
8048;SDS011;20935;42.660;23.342;2023-05-10T15:09:36;4.27;;;3.87;;
8048;SDS011;20935;42.660;23.342;2023-05-10T15:12:23;4.90;;;4.40;;
8048;SDS011;20935;42.660;23.342;2023-05-10T15:15:08;4.30;;;4.00;;
8048;SDS011;20935;42.660;23.342;2023-05-10T15:17:53;4.37;;;3.97;;
8048;SDS011;20935;42.660;23.342;2023-05-10T15:20:39;4.33;;;3.97;;
8048;SDS011;20935;42.660;23.342;2023-05-10T15:23:24;4.70;;;4.30;;
8048;SDS011;20935;42.660;23.342;2023-05-10T15:26:10;4.60;;;4.20;;
8048;SDS011;20935;42.660;23.342;2023-05-10T15:28:57;4.43;;;4.13;;
8048;SDS011;20935;42.660;23.342;2023-05-10T15:31:42;4.60;;;4.10;;
8048;SDS011;20935;42.660;23.342;2023-05-10T15:34:28;4.20;;;3.90;;
8048;SDS011;20935;42.660;23.342;2023-05-10T15:37:13;4.80;;;4.40;;
8048;SDS011;20935;42.660;23.342;2023-05-10T15:39:59;5.17;;;3.87;;
8048;SDS011;20935;42.660;23.342;2023-05-10T15:42:46;4.97;;;3.93;;
8048;SDS011;20935;42.660;23.342;2023-05-10T15:45:33;4.87;;;4.40;;
8048;SDS011;20935;42.660;23.342;2023-05-10T15:48:19;4.40;;;4.10;;
8048;SDS011;20935;42.660;23.342;2023-05-10T15:51:04;4.57;;;4.17;;
8048;SDS011;20935;42.660;23.342;2023-05-10T15:53:49;4.60;;;4.17;;
8048;SDS011;20935;42.660;23.342;2023-05-10T15:56:35;4.60;;;3.93;;
8048;SDS011;20935;42.660;23.342;2023-05-10T15:59:20;4.80;;;4.40;;
8048;SDS011;20935;42.660;23.342;2023-05-10T16:02:07;4.47;;;4.07;;
8048;SDS011;20935;42.660;23.342;2023-05-10T16:04:53;4.33;;;3.93;;
8048;SDS011;20935;42.660;23.342;2023-05-10T16:07:39;4.63;;;4.27;;
8048;SDS011;20935;42.660;23.342;2023-05-10T16:10:25;4.10;;;3.70;;
8048;SDS011;20935;42.660;23.342;2023-05-10T16:13:10;4.70;;;4.20;;
8048;SDS011;20935;42.660;23.342;2023-05-10T16:15:57;4.40;;;4.00;;
8048;SDS011;20935;42.660;23.342;2023-05-10T16:18:44;4.30;;;3.90;;
8048;SDS011;20935;42.660;23.342;2023-05-10T16:21:30;4.37;;;3.97;;
8048;SDS011;20935;42.660;23.342;2023-05-10T16:24:15;4.47;;;4.07;;
8048;SDS011;20935;42.660;23.342;2023-05-10T16:27:01;3.87;;;3.57;;
8048;SDS011;20935;42.660;23.342;2023-05-10T16:29:46;4.37;;;3.80;;
8048;SDS011;20935;42.660;23.342;2023-05-10T16:32:32;4.30;;;3.90;;
8048;SDS011;20935;42.660;23.342;2023-05-10T16:35:19;4.20;;;3.90;;
8048;SDS011;20935;42.660;23.342;2023-05-10T16:38:06;3.97;;;3.67;;
8048;SDS011;20935;42.660;23.342;2023-05-10T16:40:52;13.10;;;4.20;;
8048;SDS011;20935;42.660;23.342;2023-05-10T16:43:38;4.23;;;3.80;;
8048;SDS011;20935;42.660;23.342;2023-05-10T16:46:23;10.90;;;3.87;;
8048;SDS011;20935;42.660;23.342;2023-05-10T16:49:09;4.37;;;3.97;;
8048;SDS011;20935;42.660;23.342;2023-05-10T16:51:56;4.73;;;4.03;;
8048;SDS011;20935;42.660;23.342;2023-05-10T16:54:41;5.77;;;4.00;;